2. Juli 2022

Uhrzeit Code Wetter Temp. Sichtweite Wolkendecke Wind METAR/SPECI
12:00 am
V
63 °F 15 mi - 120° 120° 9 kt METAR CYVR 020700Z 12009KT 15SM SKC 17/13 A2998 RMK SLP153 DENSITY ALT 200FT

1. Juli 2022

Uhrzeit Code Wetter Temp. Sichtweite Wolkendecke Wind METAR/SPECI
11:00 pm
V
63 °F 15 mi - 100° 100° 10 kt METAR CYVR 020600Z 10010KT 15SM SKC 17/13 A2998 RMK SLP153 DENSITY ALT 200FT
10:00 pm
V
63 °F 15 mi - 090° 090° 9 kt METAR CYVR 020500Z 09009KT 15SM SKC 17/13 A2998 RMK SLP154 DENSITY ALT 300FT
9:00 pm
V
68 °F 25 mi - 100° 100° 6 kt METAR CYVR 020400Z 10006KT 25SM FEW049 20/14 A2998 RMK SC1 SC TR SLP154 DENSITY ALT 600FT
8:00 pm
V
72 °F 25 mi - 180° 180° 6 kt METAR CYVR 020300Z 18006KT 25SM FEW045 22/13 A2998 RMK SC1 SC TR CU ASOCTD W SLP153 DENSITY ALT 800FT
7:00 pm
V
72 °F 25 mi - 200° 200° 9 - 16 kt METAR CYVR 020200Z 20009G16KT 180V250 25SM FEW040 22/13 A2998 RMK SC1 SC TR TCU TOPS W SLP154 DENSITY ALT 900FT
6:00 pm
V
73 °F 25 mi - 200° 200° 7 kt METAR CYVR 020100Z 20007KT 25SM FEW040 23/15 A2999 RMK SC1 SC TR TCU EMBD SLP157 DENSITY ALT 900FT
5:00 pm
V
73 °F 25 mi - 220° 220° 8 kt METAR CYVR 020000Z 22008KT 25SM FEW040TCU 23/14 A3001 RMK TCU1 TCU TR SLP164 DENSITY ALT 900FT
4:00 pm
V
73 °F 25 mi - 210° 210° 7 kt METAR CYVR 012300Z 21007KT 25SM FEW040TCU 23/15 A3002 RMK TCU1 TCU TR SLP169 DENSITY ALT 900FT
3:00 pm
V
73 °F 25 mi - 210° 210° 9 - 20 kt METAR CYVR 012200Z 21009G20KT 190V350 25SM FEW040TCU 23/16 A3004 RMK TCU1 TCU TR SLP174 DENSITY ALT 800FT
2:00 pm
V
73 °F 25 mi - 220° 220° 8 kt METAR CYVR 012100Z 22008KT 180V240 25SM FEW040TCU 23/16 A3005 RMK TCU1 TCU TR SLP177 DENSITY ALT 900FT
1:00 pm
V
72 °F 25 mi - 130° 130° 5 kt METAR CYVR 012000Z 13005KT 090V200 25SM FEW040TCU 22/14 A3006 RMK TCU1 TCU TR SLP183 DENSITY ALT 700FT
12:00 pm
V
70 °F 25 mi - 130° 130° 8 kt METAR CYVR 011900Z 13008KT 25SM FEW040TCU 21/14 A3007 RMK TCU1 TCU TR SLP184 DENSITY ALT 600FT
11:00 am
V
68 °F 25 mi - 150° 150° 7 kt METAR CYVR 011800Z 15007KT 25SM FEW040 FEW150 20/14 A3007 RMK CU1AC1 CU TR AC TR TCU EMBD SLP186 DENSITY ALT 400FT
10:00 am
V
66 °F 25 mi - 140° 140° 5 kt METAR CYVR 011700Z 14005KT 090V170 25SM FEW040 19/13 A3007 RMK CU1 CU TR TCU EMBD SLP185 DENSITY ALT 400FT
9:00 am
V
64 °F 25 mi - 120° 120° 8 kt METAR CYVR 011600Z 12008KT 25SM FEW040 FEW120 18/13 A3008 RMK CU1AC1 CU TR AC TR SLP187 DENSITY ALT 200FT
8:00 am
V
63 °F 25 mi - 110° 110° 10 kt METAR CYVR 011500Z 11010KT 25SM FEW120 FEW210 17/14 A3008 RMK AC1CC1 AC TR CC TR SLP187 DENSITY ALT 100FT
7:00 am
V
59 °F 20 mi - 140° 140° 5 kt METAR CYVR 011400Z 14005KT 20SM FEW120 FEW210 15/14 A3007 RMK AC1CC1 AC TR SLP185
6:00 am
V
57 °F 20 mi - 090° 090° 5 kt METAR CYVR 011300Z 09005KT 20SM FEW037 FEW055 FEW120 14/14 A3006 RMK CU1SC1AC1 CU TR SC TR AC TR SLP182
5:00 am
V
57 °F 20 mi - 080° 080° 5 kt METAR CYVR 011200Z 08005KT 20SM FEW053 FEW080 FEW120 14/14 A3006 RMK SC1AC1AC1 SC TR AC TR AC TR SLP180
4:00 am
V
57 °F 15 mi - 100° 100° 5 kt METAR CYVR 011100Z 10005KT 15SM FEW070 FEW150 FEW230 14/13 A3005 RMK AC1AC1CI1 AC TR AC TR CI TR SLP179
3:00 am
V
59 °F 15 mi - 120° 120° 3 kt METAR CYVR 011000Z 12003KT 15SM FEW070 15/13 A3005 RMK AC1 AC TR SLP178
2:00 am
V
59 °F 15 mi - 090° 090° 5 kt METAR CYVR 010900Z 09005KT 15SM FEW070 15/13 A3005 RMK AC1 AC TR SLP178
1:00 am
V
61 °F 15 mi - 090° 090° 7 kt METAR CYVR 010800Z 09007KT 15SM SKC 16/14 A3005 RMK SLP178
12:00 am
V
63 °F 15 mi - 080° 080° 4 kt METAR CYVR 010700Z 08004KT 15SM FEW055 FEW075 17/14 A3005 RMK SC1AC1 SC TR AC TR SLP178 DENSITY ALT 100FT

30. Juni 2022

Uhrzeit Code Wetter Temp. Sichtweite Wolkendecke Wind METAR/SPECI
11:00 pm
V
63 °F 15 mi - 100° 100° 3 kt METAR CYVR 010600Z 10003KT 15SM FEW054 FEW075 FEW170 17/13 A3005 RMK SC1AC1AC1 SC TR AC TR AC TR SLP178 DENSITY ALT 200FT
10:00 pm
V
64 °F 15 mi - 190° 190° 3 kt METAR CYVR 010500Z 19003KT 140V250 15SM FEW058 FEW070 FEW170 18/14 A3005 RMK SC1AC1AC1 SC TR AC TR AC TR SLP177 DENSITY ALT 200FT
9:00 pm
V
64 °F 30 mi - 190° 190° 6 kt METAR CYVR 010400Z 19006KT 30SM FEW040 FEW060 FEW170 18/15 A3004 RMK CU1SC1AC1 CU TR SC TR AC TR SLP174 DENSITY ALT 200FT
8:00 pm
V
66 °F 30 mi - 210° 210° 5 kt METAR CYVR 010300Z 21005KT 30SM FEW037 FEW060 FEW180 19/16 A3004 RMK CU1SC1AC1 CU TR SC TR AC TR CONTRAILS SLP175 DENSITY ALT 300FT
7:00 pm
V
68 °F 30 mi - 270° 270° 5 kt METAR CYVR 010200Z 27005KT 30SM FEW037 FEW057 FEW180 20/16 A3005 RMK CU1SC1AC1 SC TR AC TR TCU TOPS W SLP177 DENSITY ALT 500FT
6:00 pm
V
70 °F 30 mi - 290° 290° 6 kt METAR CYVR 010100Z 29006KT 30SM FEW045 FEW050 FEW180 FEW210 21/16 A3006 RMK CU1CU1AC1CI1 CU TR AC TR CI TR TCU EMBEDED TCU TOPS W SLP181 DENSITY ALT 500FT
5:00 pm
V
70 °F 30 mi - 260° 260° 8 kt METAR CYVR 010000Z 26008KT 30SM FEW050 FEW170 FEW190 21/16 A3008 RMK CU2AC1AC1 AC TR AC TR SLP187 DENSITY ALT 600FT
4:00 pm
V
70 °F 30 mi - 270° 270° 11 kt METAR CYVR 302300Z 27011KT 30SM FEW050 FEW180 FEW210 21/16 A3009 RMK CU2AC1CI1 AC TR CI TR SLP192 DENSITY ALT 500FT
3:00 pm
V
70 °F 30 mi - 280° 280° 10 kt METAR CYVR 302200Z 28010KT 30SM FEW050 FEW180 FEW210 21/16 A3010 RMK CU2AC1CI1 AC TR CI TR SLP196 DENSITY ALT 500FT
2:00 pm
V
68 °F 30 mi - 280° 280° 9 kt METAR CYVR 302100Z 28009KT 30SM FEW040 FEW170 FEW190 20/16 A3011 RMK CU2AC1AS1 AC TR AS TR SLP200 DENSITY ALT 500FT
1:00 pm
V
68 °F 30 mi - 270° 270° 9 kt METAR CYVR 302000Z 27009KT 30SM FEW040 FEW170 FEW180 FEW240 20/15 A3012 RMK CU2ACC1AC1CS1 ACC TR AC TR CS TR SLP203 DENSITY ALT 400FT
12:00 pm
V
66 °F 30 mi - 280° 280° 9 kt METAR CYVR 301900Z 28009KT 30SM FEW030 FEW035 FEW160 FEW170 FEW240 19/15 A3014 RMK SC1CU2AC1AC1CS1 SC TR AC TR AC TR CS TR SLP207 DENSITY ALT 300FT
11:00 am
V
64 °F 30 mi - 240° 240° 8 kt METAR CYVR 301800Z 24008KT 30SM FEW025 FEW035 FEW040 FEW160 FEW180 18/16 A3014 RMK CU1SC1SC1AC1AC1 SC TR AC TR AC TR SLP210 DENSITY ALT 100FT
10:00 am
V
63 °F 30 mi - 240° 240° 6 kt METAR CYVR 301700Z 24006KT 30SM FEW040 FEW160 FEW170 17/14 A3015 RMK SC1AC1AC1 AC TR CU EMBEDED SLP212
9:00 am
V
63 °F 30 mi - 210° 210° 7 kt METAR CYVR 301600Z 21007KT 200V280 30SM FEW025 FEW035 FEW100 FEW160 17/14 A3015 RMK SC1SC1AC1AC2 SC TR SC TR AC TR CU EMBEDED SLP213
8:00 am
V
63 °F 30 mi - 220° 220° 4 kt METAR CYVR 301500Z 22004KT 30SM FEW025 FEW030 FEW100 FEW160 17/14 A3015 RMK SC1SC1AC1AC2 SC TR SC TR AC TR SLP213
7:00 am
V
59 °F 30 mi - 150° 150° 5 kt METAR CYVR 301400Z 15005KT 010V180 30SM FEW060 FEW100 FEW160 SCT240 15/14 A3016 RMK SC1AC1AC2CS1 SC TR AC TR SLP214
6:00 am
V
57 °F 30 mi - 060° 060° 2 kt METAR CYVR 301300Z 06002KT 30SM FEW052 SCT160 14/12 A3015 RMK SC1AC2 SLP213
5:00 am
V
57 °F 20 mi - 090° 090° 2 kt METAR CYVR 301200Z 09002KT 20SM FEW053 SCT160 14/12 A3015 RMK SC1AC2 SLP213
4:00 am
V
55 °F 15 mi - Var Var 2 kt METAR CYVR 301100Z VRB02KT 15SM FEW053 SCT160 13/12 A3016 RMK SC2AC2 SLP214
3:00 am
V
57 °F 15 mi - Var 000° 0 kt METAR CYVR 301000Z 00000KT 15SM FEW051 SCT160 SCT180 14/12 A3016 RMK SC2AC1AC1 SLP215
2:00 am
V
57 °F 15 mi - Var 000° 0 kt METAR CYVR 300900Z 00000KT 15SM FEW056 FEW180 14/12 A3016 RMK SC1AC2 SC TR SLP216
1:00 am
V
55 °F 15 mi - 340° 340° 4 kt METAR CYVR 300800Z 34004KT 15SM FEW056 FEW067 SCT180 13/12 A3016 RMK SC1AC1AC2 AC TR SLP217
12:00 am
V
59 °F 15 mi - 010° 010° 2 kt METAR CYVR 300700Z 01002KT 15SM FEW053 SCT066 SCT190 15/13 A3016 RMK SC1AC2AC1 SLP217
Ältere Daten

Laden Sie unsere App herunter

Einfacher Zugriff auf das gesamte Flugwetter auf Ihrem Mobiltelefon und Tablet.
Mit vielen Funktionen, die auf der Website nicht verfügbar sind, wie Offline-Unterstützung und eine persönliche Flughafenliste.

Wir und Dritte verfolgen dein Internetverhalten auf unserer Website mit Cookies. Wenn du fortfährst, gehen wir davon aus, dass du mit unserer Cookie-Richtlinie einverstanden bist. Mehr erfahren